createdAt,value
2022-08-26T00:02:01.429Z,22.87
2022-08-26T00:04:29.070Z,22.86
2022-08-26T00:06:56.717Z,22.81
2022-08-26T00:09:25.929Z,22.79
2022-08-26T00:11:54.101Z,22.74
2022-08-26T00:14:28.302Z,22.70
2022-08-26T00:16:58.682Z,22.65
2022-08-26T00:19:25.928Z,22.52
2022-08-26T00:21:53.733Z,22.44
2022-08-26T00:24:21.347Z,22.39
2022-08-26T00:26:49.680Z,22.29
2022-08-26T00:29:17.830Z,22.20
2022-08-26T00:31:45.655Z,22.13
2022-08-26T00:34:13.981Z,22.13
2022-08-26T00:36:43.540Z,22.14
2022-08-26T00:39:11.380Z,22.15
2022-08-26T00:41:40.790Z,22.16
2022-08-26T00:44:10.619Z,22.15
2022-08-26T00:46:53.396Z,22.15
2022-08-26T00:49:40.296Z,22.17
2022-08-26T00:52:14.419Z,22.18
2022-08-26T00:54:53.329Z,22.18
2022-08-26T00:57:22.121Z,22.16
2022-08-26T00:59:54.490Z,22.10
2022-08-26T01:02:22.371Z,22.02
2022-08-26T01:05:00.286Z,21.94
2022-08-26T01:07:31.236Z,21.86
2022-08-26T01:10:06.400Z,21.78
2022-08-26T01:12:40.650Z,21.72
2022-08-26T01:15:20.049Z,21.70
2022-08-26T01:17:47.470Z,21.69
2022-08-26T01:20:36.496Z,21.67
2022-08-26T01:23:10.280Z,21.64
2022-08-26T01:25:43.557Z,21.55
2022-08-26T01:28:22.606Z,21.52
2022-08-26T01:30:52.801Z,21.49
2022-08-26T01:33:29.486Z,21.47
2022-08-26T01:35:56.706Z,21.45
2022-08-26T01:38:24.432Z,21.42
2022-08-26T01:40:54.525Z,21.33
2022-08-26T01:43:27.100Z,21.23
2022-08-26T01:45:56.533Z,21.18
2022-08-26T01:48:28.408Z,21.03
2022-08-26T01:50:56.894Z,20.81
2022-08-26T01:53:25.148Z,20.76
2022-08-26T01:55:56.808Z,20.73
2022-08-26T01:58:36.241Z,20.71
2022-08-26T02:01:03.859Z,20.73
2022-08-26T02:03:32.530Z,20.77
2022-08-26T02:06:09.237Z,20.80
2022-08-26T02:08:49.945Z,20.83
2022-08-26T02:11:18.554Z,20.85
2022-08-26T02:13:51.845Z,20.83
2022-08-26T02:16:25.771Z,20.81
2022-08-26T02:18:55.220Z,20.78
2022-08-26T02:21:22.509Z,20.77
2022-08-26T02:23:53.320Z,20.68
2022-08-26T02:26:26.892Z,20.59
2022-08-26T02:29:05.117Z,20.52
2022-08-26T02:31:35.108Z,20.43
2022-08-26T02:34:10.838Z,20.38
2022-08-26T02:36:39.094Z,20.36
2022-08-26T02:39:08.221Z,20.27
2022-08-26T02:41:35.912Z,20.17
2022-08-26T02:44:12.738Z,20.10
2022-08-26T02:46:40.681Z,20.07
2022-08-26T02:49:09.499Z,20.08
2022-08-26T02:51:38.243Z,20.06
2022-08-26T02:54:07.748Z,19.99
2022-08-26T02:56:35.308Z,20.00
2022-08-26T02:59:03.270Z,19.87
2022-08-26T03:01:34.276Z,19.78
2022-08-26T03:04:04.943Z,19.80
2022-08-26T03:06:33.217Z,19.77
2022-08-26T03:09:00.373Z,19.77
2022-08-26T03:11:30.935Z,19.75
2022-08-26T03:14:03.662Z,19.68
2022-08-26T03:16:34.992Z,19.63
2022-08-26T03:19:05.444Z,19.60
2022-08-26T03:21:34.240Z,19.58
2022-08-26T03:24:03.878Z,19.58
2022-08-26T03:26:31.542Z,19.48
2022-08-26T03:29:17.204Z,19.42
2022-08-26T03:31:45.109Z,19.38
2022-08-26T03:34:15.800Z,19.35
2022-08-26T03:36:43.360Z,19.32
2022-08-26T03:39:13.372Z,19.32
2022-08-26T03:41:43.902Z,19.30
2022-08-26T03:44:11.560Z,19.30
2022-08-26T03:46:39.645Z,19.27
2022-08-26T03:49:07.528Z,19.26
2022-08-26T03:51:38.631Z,19.31
2022-08-26T03:54:08.170Z,19.37
2022-08-26T03:56:36.301Z,19.42
2022-08-26T03:59:05.322Z,19.50
2022-08-26T04:01:35.515Z,19.55
2022-08-26T04:04:04.012Z,19.61
2022-08-26T04:06:38.951Z,19.61
2022-08-26T04:09:14.089Z,19.58
2022-08-26T04:11:44.844Z,19.53
2022-08-26T04:14:20.119Z,19.57
2022-08-26T04:16:48.443Z,19.57
2022-08-26T04:19:17.213Z,19.58
2022-08-26T04:21:46.934Z,19.63
2022-08-26T04:24:16.513Z,19.64
2022-08-26T04:26:45.157Z,19.63
2022-08-26T04:29:20.352Z,19.62
2022-08-26T04:31:47.791Z,19.59
2022-08-26T04:34:16.410Z,19.59
2022-08-26T04:36:44.398Z,19.64
2022-08-26T04:39:16.258Z,19.73
2022-08-26T04:41:44.503Z,19.85
2022-08-26T04:44:12.682Z,19.93
2022-08-26T04:46:43.877Z,20.00
2022-08-26T04:49:12.552Z,20.09
2022-08-26T04:51:40.326Z,20.14
2022-08-26T04:54:08.550Z,20.22
2022-08-26T04:56:39.069Z,20.33
2022-08-26T04:59:16.784Z,20.40
2022-08-26T05:01:52.011Z,20.48
2022-08-26T05:04:20.833Z,20.57
2022-08-26T05:06:49.119Z,20.57
2022-08-26T05:09:18.071Z,20.61
2022-08-26T05:11:45.968Z,20.60
2022-08-26T05:14:22.677Z,20.62
2022-08-26T05:16:50.678Z,20.65
2022-08-26T05:19:19.186Z,20.69
2022-08-26T05:21:48.113Z,20.75
2022-08-26T05:24:16.901Z,20.82
2022-08-26T05:26:44.904Z,20.87
2022-08-26T05:29:13.841Z,20.90
2022-08-26T05:31:41.158Z,20.95
2022-08-26T05:34:08.658Z,21.01
2022-08-26T05:36:37.095Z,21.04
2022-08-26T05:39:05.850Z,21.09
2022-08-26T05:41:38.403Z,21.15
2022-08-26T05:44:12.393Z,21.21
2022-08-26T05:46:40.829Z,21.27
2022-08-26T05:49:12.577Z,21.28
2022-08-26T05:51:44.696Z,21.33
2022-08-26T05:54:14.288Z,21.41
2022-08-26T05:56:52.564Z,21.48
2022-08-26T05:59:24.035Z,21.55
2022-08-26T06:01:54.073Z,21.63
2022-08-26T06:04:23.200Z,21.68
2022-08-26T06:06:53.899Z,21.69
2022-08-26T06:09:21.262Z,21.74
2022-08-26T06:11:48.625Z,21.81
2022-08-26T06:14:17.488Z,21.88
2022-08-26T06:16:45.686Z,21.91
2022-08-26T06:19:15.109Z,21.86
2022-08-26T06:21:45.997Z,21.84
2022-08-26T06:24:33.006Z,21.93
2022-08-26T06:27:04.786Z,22.04
2022-08-26T06:29:34.622Z,22.13
2022-08-26T06:32:04.359Z,22.21
2022-08-26T06:34:32.214Z,22.32
2022-08-26T06:37:05.553Z,22.37
2022-08-26T06:39:34.180Z,22.44
2022-08-26T06:42:02.736Z,22.50
2022-08-26T06:44:34.066Z,22.53
2022-08-26T06:47:01.312Z,22.59
2022-08-26T06:49:28.447Z,22.64
2022-08-26T06:51:59.141Z,22.65
2022-08-26T06:54:31.089Z,22.71
2022-08-26T06:56:58.914Z,22.72
2022-08-26T06:59:26.369Z,22.74
2022-08-26T07:01:54.396Z,22.82
2022-08-26T07:04:22.469Z,22.90
2022-08-26T07:06:52.315Z,22.96
2022-08-26T07:09:27.360Z,23.03
2022-08-26T07:11:56.217Z,23.14
2022-08-26T07:14:24.768Z,23.23
2022-08-26T07:16:51.897Z,23.29
2022-08-26T07:19:31.092Z,23.37
2022-08-26T07:22:03.341Z,23.48
2022-08-26T07:24:34.982Z,23.58
2022-08-26T07:27:16.887Z,23.68
2022-08-26T07:29:44.852Z,23.76
2022-08-26T07:32:15.260Z,23.87
2022-08-26T07:34:43.001Z,23.96
2022-08-26T07:37:11.638Z,24.07
2022-08-26T07:39:40.473Z,24.14
2022-08-26T07:42:10.414Z,24.24
2022-08-26T07:44:39.346Z,24.32
2022-08-26T07:47:19.385Z,24.40
2022-08-26T07:49:57.207Z,24.45
2022-08-26T07:52:29.970Z,24.51
2022-08-26T07:55:00.731Z,24.58
2022-08-26T07:57:29.879Z,24.64
2022-08-26T07:59:58.661Z,24.73
2022-08-26T08:02:28.104Z,24.78
2022-08-26T08:04:57.369Z,24.84
2022-08-26T08:07:25.886Z,24.95
2022-08-26T08:10:20.829Z,25.04
2022-08-26T08:12:49.285Z,25.10
2022-08-26T08:15:20.365Z,25.17
2022-08-26T08:17:48.045Z,25.25
2022-08-26T08:20:19.765Z,25.34
2022-08-26T08:22:47.746Z,25.43
2022-08-26T08:25:15.757Z,25.50
2022-08-26T08:27:48.209Z,25.57
2022-08-26T08:30:20.875Z,25.64
2022-08-26T08:32:51.924Z,25.69
2022-08-26T08:35:23.532Z,25.75
2022-08-26T08:37:53.929Z,25.80
2022-08-26T08:40:24.603Z,25.88
2022-08-26T08:43:07.403Z,25.94
2022-08-26T08:45:48.560Z,26.03
2022-08-26T08:48:32.964Z,26.07
2022-08-26T08:51:39.414Z,26.13
2022-08-26T08:54:08.692Z,26.18
2022-08-26T08:57:20.260Z,26.22
2022-08-26T09:00:08.789Z,26.32
2022-08-26T09:03:01.205Z,26.40
2022-08-26T09:05:39.712Z,26.52
2022-08-26T09:08:17.404Z,26.58
2022-08-26T09:10:54.026Z,26.67
2022-08-26T09:13:26.171Z,26.75
2022-08-26T09:15:59.970Z,26.81
2022-08-26T09:18:51.242Z,26.87
2022-08-26T09:21:23.638Z,26.96
2022-08-26T09:23:55.437Z,27.05
2022-08-26T09:26:40.560Z,27.17
2022-08-26T09:29:18.441Z,27.24
2022-08-26T09:31:45.794Z,27.34
2022-08-26T09:34:17.790Z,27.40
2022-08-26T09:36:50.877Z,27.44
2022-08-26T09:39:23.669Z,27.52
2022-08-26T09:42:23.153Z,27.53
2022-08-26T09:45:07.923Z,27.59
2022-08-26T09:47:47.056Z,27.67
2022-08-26T09:50:54.474Z,27.75
2022-08-26T09:53:28.698Z,27.82
2022-08-26T09:56:16.095Z,27.88
2022-08-26T09:58:47.043Z,27.96
2022-08-26T10:01:33.174Z,28.06
2022-08-26T10:04:32.902Z,28.13
2022-08-26T10:07:05.197Z,28.22
2022-08-26T10:09:38.596Z,28.24
2022-08-26T10:12:20.738Z,28.29
2022-08-26T10:14:55.950Z,28.44
2022-08-26T10:17:47.381Z,28.55
2022-08-26T10:20:23.169Z,28.61
2022-08-26T10:23:09.002Z,28.64
2022-08-26T10:25:53.265Z,28.75
2022-08-26T10:28:54.636Z,28.85
2022-08-26T10:31:40.172Z,28.95
2022-08-26T10:34:10.083Z,29.02
2022-08-26T10:37:14.917Z,29.10
2022-08-26T10:39:57.014Z,29.25
2022-08-26T10:42:47.688Z,29.37
2022-08-26T10:45:19.657Z,29.49
2022-08-26T10:48:04.012Z,29.60
2022-08-26T10:50:44.885Z,29.70
2022-08-26T10:53:25.185Z,29.82
2022-08-26T10:56:15.727Z,29.92
2022-08-26T10:59:32.913Z,30.04
2022-08-26T11:02:26.238Z,30.13
2022-08-26T11:05:03.079Z,30.24
2022-08-26T11:07:45.724Z,30.32
2022-08-26T11:10:22.697Z,30.42
2022-08-26T11:13:04.873Z,30.51
2022-08-26T11:15:31.964Z,30.59
2022-08-26T11:18:03.865Z,30.64
2022-08-26T11:20:42.368Z,30.71
2022-08-26T11:23:13.021Z,30.78
2022-08-26T11:26:01.028Z,30.89
2022-08-26T11:28:44.025Z,31.00
2022-08-26T11:31:38.834Z,31.11
2022-08-26T11:34:13.225Z,31.20
2022-08-26T11:37:21.583Z,31.32
2022-08-26T11:40:05.101Z,31.44
2022-08-26T11:42:57.153Z,31.55
2022-08-26T11:45:44.934Z,31.63
2022-08-26T11:48:37.465Z,31.74
2022-08-26T11:53:12.017Z,31.82
2022-08-26T11:55:44.413Z,31.93
2022-08-26T11:58:12.706Z,32.02
2022-08-26T12:00:46.339Z,32.08
2022-08-26T12:03:25.525Z,32.13
2022-08-26T12:05:53.866Z,32.23
2022-08-26T12:08:27.980Z,32.33
2022-08-26T12:11:09.038Z,32.38
2022-08-26T12:13:38.574Z,32.36
2022-08-26T12:16:06.962Z,32.39
2022-08-26T12:18:38.627Z,32.52
2022-08-26T12:21:24.316Z,32.66
2022-08-26T12:23:55.772Z,32.74
2022-08-26T12:26:36.516Z,32.81
2022-08-26T12:29:20.208Z,32.86
2022-08-26T12:32:17.219Z,32.92
2022-08-26T12:34:48.582Z,32.95
2022-08-26T12:37:16.129Z,33.04
2022-08-26T12:39:47.317Z,33.17
2022-08-26T12:42:17.314Z,33.35
2022-08-26T12:44:59.567Z,33.45
2022-08-26T12:47:43.936Z,33.47
2022-08-26T12:50:27.044Z,33.51
2022-08-26T12:53:10.145Z,33.69
2022-08-26T12:55:55.626Z,33.86
2022-08-26T12:58:33.062Z,34.04
2022-08-26T13:01:06.304Z,34.18
2022-08-26T13:03:33.419Z,34.22
2022-08-26T13:06:23.176Z,34.19
2022-08-26T13:09:00.152Z,34.25
2022-08-26T13:11:33.005Z,34.27
2022-08-26T13:14:09.836Z,34.32
2022-08-26T13:16:40.995Z,34.28
2022-08-26T13:19:12.901Z,34.48
2022-08-26T13:21:53.325Z,34.58
2022-08-26T13:24:25.610Z,34.59
2022-08-26T13:26:53.077Z,34.39
2022-08-26T13:29:20.672Z,34.36
2022-08-26T13:31:48.296Z,34.42
2022-08-26T13:34:19.691Z,34.37
2022-08-26T13:36:53.638Z,34.14
2022-08-26T13:39:22.414Z,34.06
2022-08-26T13:41:49.954Z,34.11
2022-08-26T13:44:18.140Z,34.13
2022-08-26T13:49:17.986Z,34.11
2022-08-26T13:51:45.257Z,34.17
2022-08-26T13:54:12.660Z,34.24
2022-08-26T13:56:40.337Z,34.30
2022-08-26T13:59:07.440Z,34.39
2022-08-26T14:01:35.880Z,34.43
2022-08-26T14:04:03.850Z,34.46
2022-08-26T14:06:31.598Z,34.44
2022-08-26T14:08:58.947Z,34.33
2022-08-26T14:11:26.811Z,34.26
2022-08-26T14:13:54.060Z,34.21
2022-08-26T14:16:32.754Z,34.32
2022-08-26T14:19:01.780Z,34.31
2022-08-26T14:21:31.403Z,34.22
2022-08-26T14:24:00.962Z,34.03
2022-08-26T14:26:29.909Z,33.83
2022-08-26T14:28:59.329Z,33.57
2022-08-26T14:31:29.349Z,33.39
2022-08-26T14:34:02.089Z,33.28
2022-08-26T14:36:31.970Z,33.32
2022-08-26T14:39:11.786Z,33.29
2022-08-26T14:41:46.048Z,33.14
2022-08-26T14:44:27.461Z,33.10
2022-08-26T14:46:55.339Z,32.96
2022-08-26T14:49:24.702Z,32.96
2022-08-26T14:51:51.953Z,32.93
2022-08-26T14:54:20.742Z,32.93
2022-08-26T14:56:53.637Z,32.83
2022-08-26T14:59:28.460Z,32.78
2022-08-26T15:01:57.040Z,32.69
2022-08-26T15:04:24.796Z,32.65
2022-08-26T15:06:54.385Z,32.52
2022-08-26T15:09:23.200Z,32.45
2022-08-26T15:11:52.297Z,32.42
2022-08-26T15:14:20.464Z,32.38
2022-08-26T15:16:51.501Z,32.30
2022-08-26T15:19:20.010Z,32.23
2022-08-26T15:21:47.610Z,32.19
2022-08-26T15:24:20.843Z,32.13
2022-08-26T15:26:49.113Z,32.05
2022-08-26T15:29:16.877Z,31.94
2022-08-26T15:31:44.113Z,31.86
2022-08-26T15:34:16.401Z,31.78
2022-08-26T15:36:46.824Z,31.69
2022-08-26T15:39:16.848Z,31.58
2022-08-26T15:41:44.812Z,31.50
2022-08-26T15:44:13.725Z,31.38
2022-08-26T15:46:41.575Z,31.31
2022-08-26T15:49:09.065Z,31.24
2022-08-26T15:51:47.444Z,31.17
2022-08-26T15:54:16.305Z,31.11
2022-08-26T15:56:44.973Z,31.02
2022-08-26T15:59:12.373Z,30.95
2022-08-26T16:01:40.244Z,30.88
2022-08-26T16:04:07.494Z,30.82
2022-08-26T16:06:38.430Z,30.75
2022-08-26T16:09:06.528Z,30.68
2022-08-26T16:11:37.543Z,30.56
2022-08-26T16:14:05.308Z,30.49
2022-08-26T16:16:32.981Z,30.44
2022-08-26T16:19:05.626Z,30.39
2022-08-26T16:21:35.234Z,30.34
2022-08-26T16:24:03.446Z,30.29
2022-08-26T16:26:34.770Z,30.22
2022-08-26T16:29:06.054Z,30.13
2022-08-26T16:31:35.272Z,30.05
2022-08-26T16:34:02.572Z,29.99
2022-08-26T16:36:29.939Z,29.92
2022-08-26T16:38:57.177Z,29.86
2022-08-26T16:41:28.316Z,29.79
2022-08-26T16:43:55.972Z,29.75
2022-08-26T16:46:25.220Z,29.69
2022-08-26T16:48:54.787Z,29.64
2022-08-26T16:51:26.469Z,29.58
2022-08-26T16:53:55.819Z,29.53
2022-08-26T16:56:34.081Z,29.42
2022-08-26T16:59:05.740Z,29.34
2022-08-26T17:01:33.155Z,29.26
2022-08-26T17:04:00.547Z,29.17
2022-08-26T17:06:27.979Z,29.08
2022-08-26T17:08:55.114Z,28.99
2022-08-26T17:11:22.577Z,28.90
2022-08-26T17:13:50.039Z,28.81
2022-08-26T17:16:17.323Z,28.73
2022-08-26T17:18:44.428Z,28.64
2022-08-26T17:21:13.239Z,28.56
2022-08-26T17:23:42.330Z,28.48
2022-08-26T17:26:11.854Z,28.41
2022-08-26T17:28:40.130Z,28.34
2022-08-26T17:31:11.927Z,28.27
2022-08-26T17:33:40.375Z,28.20
2022-08-26T17:36:08.953Z,28.14
2022-08-26T17:38:37.710Z,28.07
2022-08-26T17:41:13.666Z,28.00
2022-08-26T17:43:41.252Z,27.93
2022-08-26T17:46:11.108Z,27.85
2022-08-26T17:48:40.242Z,27.83
2022-08-26T17:51:16.333Z,27.78
2022-08-26T17:53:43.548Z,27.74
2022-08-26T17:56:13.303Z,27.71
2022-08-26T17:58:50.995Z,27.66
2022-08-26T18:01:25.617Z,27.59
2022-08-26T18:03:58.182Z,27.53
2022-08-26T18:06:30.011Z,27.49
2022-08-26T18:08:57.777Z,27.45
2022-08-26T18:11:25.021Z,27.40
2022-08-26T18:13:52.920Z,27.36
2022-08-26T18:16:20.995Z,27.30
2022-08-26T18:18:48.609Z,27.25
2022-08-26T18:21:18.901Z,27.18
2022-08-26T18:23:47.464Z,27.15
2022-08-26T18:26:24.890Z,27.11
2022-08-26T18:28:53.304Z,27.06
2022-08-26T18:31:21.070Z,27.03
2022-08-26T18:33:48.274Z,26.99
2022-08-26T18:36:36.974Z,26.94
2022-08-26T18:39:07.087Z,26.89
2022-08-26T18:41:44.346Z,26.84
2022-08-26T18:44:14.363Z,26.80
2022-08-26T18:46:42.856Z,26.76
2022-08-26T18:49:12.737Z,26.73
2022-08-26T18:51:41.364Z,26.70
2022-08-26T18:54:08.658Z,26.65
2022-08-26T18:56:37.854Z,26.60
2022-08-26T18:59:07.435Z,26.56
2022-08-26T19:01:36.830Z,26.51
2022-08-26T19:04:06.676Z,26.47
2022-08-26T19:06:35.694Z,26.45
2022-08-26T19:09:07.086Z,26.42
2022-08-26T19:11:41.715Z,26.39
2022-08-26T19:14:13.813Z,26.32
2022-08-26T19:16:48.150Z,26.27
2022-08-26T19:19:16.059Z,26.23
2022-08-26T19:21:43.816Z,26.19
2022-08-26T19:24:17.021Z,26.15
2022-08-26T19:26:51.422Z,26.12
2022-08-26T19:29:33.233Z,26.06
2022-08-26T19:32:01.795Z,26.03
2022-08-26T19:34:29.466Z,25.98
2022-08-26T19:36:58.162Z,25.91
2022-08-26T19:39:26.217Z,25.84
2022-08-26T19:41:53.480Z,25.79
2022-08-26T19:44:41.156Z,25.75
2022-08-26T19:47:11.646Z,25.70
2022-08-26T19:49:38.993Z,25.61
2022-08-26T19:52:07.984Z,25.57
2022-08-26T19:54:35.768Z,25.54
2022-08-26T19:57:03.571Z,25.51
2022-08-26T19:59:32.717Z,25.51
2022-08-26T20:02:01.355Z,25.47
2022-08-26T20:04:30.998Z,25.47
2022-08-26T20:07:00.768Z,25.46
2022-08-26T20:09:30.257Z,25.46
2022-08-26T20:11:58.273Z,25.46
2022-08-26T20:14:29.637Z,25.45
2022-08-26T20:16:57.180Z,25.42
2022-08-26T20:19:42.809Z,25.41
2022-08-26T20:22:11.821Z,25.41
2022-08-26T20:24:39.356Z,25.41
2022-08-26T20:27:07.899Z,25.39
2022-08-26T20:29:37.335Z,25.38
2022-08-26T20:32:07.351Z,25.36
2022-08-26T20:34:36.652Z,25.36
2022-08-26T20:37:04.196Z,25.33
2022-08-26T20:39:31.345Z,25.33
2022-08-26T20:41:58.901Z,25.32
2022-08-26T20:44:26.362Z,25.30
2022-08-26T20:46:54.832Z,25.29
2022-08-26T20:49:22.300Z,25.28
2022-08-26T20:51:52.529Z,25.22
2022-08-26T20:54:28.062Z,25.20
2022-08-26T20:56:57.763Z,25.19
2022-08-26T20:59:26.230Z,25.18
2022-08-26T21:01:53.815Z,25.17
2022-08-26T21:04:25.014Z,25.16
2022-08-26T21:06:54.053Z,25.13
2022-08-26T21:09:23.721Z,25.12
2022-08-26T21:11:52.224Z,25.09
2022-08-26T21:14:20.162Z,25.07
2022-08-26T21:16:47.317Z,25.04
2022-08-26T21:19:17.892Z,25.03
2022-08-26T21:21:47.799Z,25.02
2022-08-26T21:24:15.972Z,25.01
2022-08-26T21:26:43.337Z,25.00
2022-08-26T21:29:10.687Z,24.97
2022-08-26T21:31:42.290Z,24.95
2022-08-26T21:34:14.094Z,24.94
2022-08-26T21:36:41.352Z,24.93
2022-08-26T21:39:11.706Z,24.90
2022-08-26T21:41:42.719Z,24.89
2022-08-26T21:44:11.600Z,24.86
2022-08-26T21:46:38.639Z,24.83
2022-08-26T21:49:09.598Z,24.78
2022-08-26T21:51:41.277Z,24.75
2022-08-26T21:54:11.292Z,24.73
2022-08-26T21:56:46.168Z,24.69
2022-08-26T21:59:18.488Z,24.67
2022-08-26T22:01:47.128Z,24.66
2022-08-26T22:04:15.738Z,24.64
2022-08-26T22:06:48.273Z,24.62
2022-08-26T22:09:20.466Z,24.62
2022-08-26T22:11:48.622Z,24.61
2022-08-26T22:14:17.633Z,24.58
2022-08-26T22:16:50.559Z,24.56
2022-08-26T22:19:20.624Z,24.54
2022-08-26T22:21:53.181Z,24.53
2022-08-26T22:24:24.464Z,24.52
2022-08-26T22:26:52.218Z,24.50
2022-08-26T22:29:20.101Z,24.49
2022-08-26T22:31:47.490Z,24.46
2022-08-26T22:34:16.945Z,24.43
2022-08-26T22:36:47.822Z,24.40
2022-08-26T22:39:19.854Z,24.37
2022-08-26T22:41:48.031Z,24.34
2022-08-26T22:44:17.005Z,24.30
2022-08-26T22:46:44.782Z,24.28
2022-08-26T22:49:16.767Z,24.25
2022-08-26T22:51:45.632Z,24.24
2022-08-26T22:54:13.836Z,24.21
2022-08-26T22:56:41.600Z,24.18
2022-08-26T22:59:09.584Z,24.15
2022-08-26T23:01:40.290Z,24.11
2022-08-26T23:04:08.952Z,24.09
2022-08-26T23:06:39.527Z,24.08
2022-08-26T23:09:07.930Z,24.08
2022-08-26T23:11:35.538Z,24.08
2022-08-26T23:14:06.325Z,24.06
2022-08-26T23:16:39.226Z,24.03
2022-08-26T23:19:09.918Z,24.02
2022-08-26T23:21:38.369Z,24.00
2022-08-26T23:24:07.398Z,23.99
2022-08-26T23:26:35.331Z,23.99
2022-08-26T23:29:04.573Z,23.97
2022-08-26T23:31:32.271Z,23.94
2022-08-26T23:34:18.384Z,23.90
2022-08-26T23:36:45.765Z,23.83
2022-08-26T23:39:14.924Z,23.80
2022-08-26T23:41:42.487Z,23.78
2022-08-26T23:44:10.548Z,23.75
2022-08-26T23:46:38.197Z,23.73
2022-08-26T23:49:05.448Z,23.68
2022-08-26T23:51:51.253Z,23.60
2022-08-26T23:54:19.264Z,23.52
2022-08-26T23:56:46.997Z,23.47
2022-08-26T23:59:15.273Z,23.44
